Whale Cove, Canada
Current Conditions -  °F | °C
As of 4:00 AM on Sunday 25 Jan 2015 (Local Time) from CYRT Reporting Station
Ice Pellets Ice Pellets  
Wind Chill: -61°   Ceiling: Unl
Heat Index: -33°   Visibility: 15mi
Dew Point: -40°   Wind: 15mph
Humidity: 68%   Direction: 340°NNW
Pressure: 29.99"   Gusts: NA
Location:  62.17°N, 92.58°W
Report Text: CYRT 251000Z 34013KT 15SM IC SKC M36/M40 A2999 RMK SLP163
Loading
Personal Weather Stations






























Interactive Weather Map New forecast layout! Learn more

10-Day Weather Forecast

Advertisements
Track Severe Weather on mobile